createdAt,value
2018-12-21T00:00:38.983Z,11.00
2018-12-21T00:03:07.710Z,11.00
2018-12-21T00:05:36.448Z,11.01
2018-12-21T00:08:05.117Z,11.00
2018-12-21T00:10:33.773Z,11.00
2018-12-21T00:13:02.386Z,11.01
2018-12-21T00:15:30.992Z,11.00
2018-12-21T00:17:59.605Z,11.01
2018-12-21T00:20:28.252Z,11.00
2018-12-21T00:22:56.860Z,11.01
2018-12-21T00:25:25.468Z,11.00
2018-12-21T00:27:54.088Z,11.01
2018-12-21T00:30:22.581Z,11.01
2018-12-21T00:32:56.915Z,11.00
2018-12-21T00:35:30.707Z,11.02
2018-12-21T00:38:05.674Z,11.02
2018-12-21T00:40:39.680Z,11.02
2018-12-21T00:43:15.362Z,11.02
2018-12-21T00:45:47.292Z,11.03
2018-12-21T00:48:16.026Z,11.03
2018-12-21T00:50:44.693Z,11.04
2018-12-21T00:53:13.383Z,11.04
2018-12-21T00:55:42.108Z,11.05
2018-12-21T00:58:10.714Z,11.05
2018-12-21T01:00:39.309Z,11.04
2018-12-21T01:03:08.014Z,11.04
2018-12-21T01:05:36.680Z,11.05
2018-12-21T01:08:05.260Z,11.04
2018-12-21T01:10:33.853Z,11.05
2018-12-21T01:13:02.515Z,11.04
2018-12-21T01:15:31.132Z,11.05
2018-12-21T01:17:59.947Z,11.04
2018-12-21T01:20:28.698Z,11.05
2018-12-21T01:22:57.498Z,11.05
2018-12-21T01:25:26.072Z,11.06
2018-12-21T01:27:54.703Z,11.06
2018-12-21T01:30:23.581Z,11.06
2018-12-21T01:32:52.376Z,11.06
2018-12-21T01:35:21.147Z,11.06
2018-12-21T01:37:49.740Z,11.06
2018-12-21T01:40:18.364Z,11.07
2018-12-21T01:42:46.999Z,11.06
2018-12-21T01:45:15.661Z,11.06
2018-12-21T01:47:44.248Z,11.07
2018-12-21T01:50:12.856Z,11.08
2018-12-21T01:52:41.552Z,11.08
2018-12-21T01:55:10.212Z,11.08
2018-12-21T01:57:38.796Z,11.08
2018-12-21T02:00:08.119Z,11.09
2018-12-21T02:02:36.669Z,11.09
2018-12-21T02:05:05.573Z,11.09
2018-12-21T02:07:34.214Z,11.11
2018-12-21T02:10:03.012Z,11.10
2018-12-21T02:12:31.712Z,11.11
2018-12-21T02:15:00.516Z,11.11
2018-12-21T02:17:29.219Z,11.16
2018-12-21T02:19:57.937Z,11.22
2018-12-21T02:22:26.572Z,11.29
2018-12-21T02:24:55.211Z,11.36
2018-12-21T02:27:23.868Z,11.51
2018-12-21T02:29:52.415Z,11.60
2018-12-21T02:32:21.016Z,11.69
2018-12-21T02:34:49.681Z,11.72
2018-12-21T02:37:18.319Z,11.78
2018-12-21T02:39:47.003Z,11.79
2018-12-21T02:42:15.641Z,11.81
2018-12-21T02:44:44.235Z,11.83
2018-12-21T02:47:12.924Z,11.85
2018-12-21T02:49:41.571Z,11.83
2018-12-21T02:59:40.283Z,11.89
2018-12-21T03:02:08.932Z,11.89
2018-12-21T03:04:37.648Z,11.90
2018-12-21T03:07:06.399Z,11.88
2018-12-21T03:09:52.196Z,11.89
2018-12-21T03:26:33.644Z,11.93
2018-12-21T03:29:02.344Z,11.93
2018-12-21T03:31:31.145Z,11.93
2018-12-21T03:33:59.770Z,11.92
2018-12-21T03:36:28.418Z,11.92
2018-12-21T03:38:57.070Z,11.92
2018-12-21T03:41:25.688Z,11.91
2018-12-21T03:43:54.368Z,11.91
2018-12-21T03:46:23.129Z,11.91
2018-12-21T03:48:51.787Z,11.92
2018-12-21T03:51:20.447Z,11.92
2018-12-21T03:53:49.380Z,11.91
2018-12-21T03:56:18.044Z,11.90
2018-12-21T03:58:46.670Z,11.91
2018-12-21T04:01:15.391Z,11.93
2018-12-21T04:03:44.057Z,11.93
2018-12-21T04:06:12.771Z,11.92
2018-12-21T04:08:41.389Z,11.91
2018-12-21T04:11:10.220Z,11.90
2018-12-21T04:13:38.887Z,11.91
2018-12-21T04:16:07.611Z,11.89
2018-12-21T04:18:36.328Z,11.89
2018-12-21T04:21:04.910Z,11.88
2018-12-21T04:23:33.467Z,11.87
2018-12-21T04:26:02.133Z,11.85
2018-12-21T04:28:30.776Z,11.85
2018-12-21T04:30:59.384Z,11.84
2018-12-21T04:33:28.099Z,11.83
2018-12-21T04:35:56.871Z,11.80
2018-12-21T04:38:25.475Z,11.80
2018-12-21T04:40:54.515Z,11.78
2018-12-21T04:43:23.063Z,11.77
2018-12-21T04:45:51.727Z,11.75
2018-12-21T04:48:20.471Z,11.74
2018-12-21T04:50:49.036Z,11.70
2018-12-21T04:53:17.682Z,11.68
2018-12-21T04:55:46.356Z,11.67
2018-12-21T04:58:14.977Z,11.62
2018-12-21T05:00:43.644Z,11.61
2018-12-21T05:03:12.228Z,11.61
2018-12-21T05:05:40.829Z,11.64
2018-12-21T05:08:09.407Z,11.62
2018-12-21T05:10:37.994Z,11.61
2018-12-21T05:13:06.695Z,11.63
2018-12-21T05:15:35.386Z,11.63
2018-12-21T05:18:04.201Z,11.62
2018-12-21T05:20:32.864Z,11.65
2018-12-21T05:23:01.536Z,11.64
2018-12-21T05:25:30.144Z,11.63
2018-12-21T05:27:58.872Z,11.63
2018-12-21T05:30:27.560Z,11.62
2018-12-21T05:32:56.153Z,11.59
2018-12-21T05:35:24.736Z,11.59
2018-12-21T05:37:53.415Z,11.56
2018-12-21T05:40:21.996Z,11.49
2018-12-21T05:42:50.635Z,11.45
2018-12-21T05:45:19.253Z,11.43
2018-12-21T05:47:47.873Z,11.43
2018-12-21T05:50:16.435Z,11.39
2018-12-21T05:52:45.025Z,11.37
2018-12-21T05:55:13.631Z,11.36
2018-12-21T05:57:42.411Z,11.32
2018-12-21T06:00:11.276Z,11.30
2018-12-21T06:02:39.967Z,11.28
2018-12-21T06:05:08.626Z,11.28
2018-12-21T06:07:37.398Z,11.27
2018-12-21T06:10:06.552Z,11.26
2018-12-21T06:12:35.219Z,11.28
2018-12-21T06:15:04.276Z,11.31
2018-12-21T06:17:32.913Z,11.32
2018-12-21T06:20:01.546Z,11.32
2018-12-21T06:22:30.127Z,11.33
2018-12-21T06:24:58.688Z,11.34
2018-12-21T06:27:27.319Z,11.34
2018-12-21T06:29:56.048Z,11.31
2018-12-21T06:32:24.616Z,11.30
2018-12-21T06:34:53.176Z,11.29
2018-12-21T06:37:21.803Z,11.29
2018-12-21T06:39:50.537Z,11.30
2018-12-21T06:42:40.180Z,11.32
2018-12-21T06:45:08.848Z,11.31
2018-12-21T06:47:37.441Z,11.34
2018-12-21T06:50:06.744Z,11.31
2018-12-21T06:52:35.405Z,11.31
2018-12-21T06:55:04.344Z,11.33
2018-12-21T07:36:10.030Z,11.34
2018-12-21T07:38:38.632Z,11.35
2018-12-21T07:41:07.307Z,11.36
2018-12-21T07:43:35.944Z,11.37
2018-12-21T07:46:04.627Z,11.36
2018-12-21T07:48:33.336Z,11.36
2018-12-21T07:51:01.978Z,11.36
2018-12-21T07:53:35.889Z,11.37
2018-12-21T07:56:01.416Z,11.38
2018-12-21T07:58:30.050Z,11.38
2018-12-21T08:00:58.640Z,11.38
2018-12-21T08:03:27.334Z,11.37
2018-12-21T08:05:55.952Z,11.37
2018-12-21T08:08:24.568Z,11.35
2018-12-21T08:10:53.192Z,11.38
2018-12-21T08:13:21.927Z,11.36
2018-12-21T09:43:43.588Z,11.37
2018-12-21T10:00:30.450Z,11.50
2018-12-21T10:07:12.736Z,11.53
2018-12-21T10:09:52.007Z,11.52
2018-12-21T10:41:05.493Z,11.61
2018-12-21T10:44:26.411Z,11.64
2018-12-21T10:47:29.140Z,11.63
2018-12-21T10:50:22.642Z,11.66
2018-12-21T11:03:55.955Z,11.73
2018-12-21T11:06:58.800Z,11.75
2018-12-21T11:13:25.164Z,11.76
2018-12-21T11:23:12.130Z,11.82
2018-12-21T11:26:20.194Z,11.84
2018-12-21T11:28:56.574Z,11.92
2018-12-21T11:42:27.133Z,12.10
2018-12-21T12:06:33.807Z,12.12
2018-12-21T12:09:23.652Z,12.13
2018-12-21T12:15:30.592Z,12.12
2018-12-21T13:03:50.609Z,12.11
2018-12-21T13:56:06.404Z,11.88
2018-12-21T14:16:35.287Z,11.73
2018-12-21T14:36:51.735Z,11.74
2018-12-21T14:50:13.944Z,11.72
2018-12-21T14:56:12.304Z,11.68
2018-12-21T14:58:41.009Z,11.67
2018-12-21T15:15:16.879Z,11.54
2018-12-21T15:21:33.820Z,11.41
2018-12-21T15:38:04.914Z,11.31
2018-12-21T15:47:58.788Z,11.30
2018-12-21T16:01:46.525Z,11.29
2018-12-21T16:12:04.239Z,11.40
2018-12-21T16:15:07.634Z,11.35
2018-12-21T16:17:58.358Z,11.36
2018-12-21T16:20:27.220Z,11.37
2018-12-21T16:22:56.036Z,11.37
2018-12-21T16:25:24.695Z,11.39
2018-12-21T16:27:53.545Z,11.39
2018-12-21T16:30:22.217Z,11.40
2018-12-21T16:32:50.815Z,11.39
2018-12-21T16:35:19.421Z,11.40
2018-12-21T16:37:48.045Z,11.39
2018-12-21T16:40:16.631Z,11.41
2018-12-21T16:42:45.380Z,11.39
2018-12-21T16:45:14.211Z,11.40
2018-12-21T16:47:43.048Z,11.42
2018-12-21T16:50:13.896Z,11.45
2018-12-21T16:52:42.819Z,11.47
2018-12-21T16:55:11.588Z,11.46
2018-12-21T16:57:40.323Z,11.45
2018-12-21T17:00:15.510Z,11.46
2018-12-21T17:02:44.524Z,11.44
2018-12-21T17:05:13.374Z,11.45
2018-12-21T17:07:44.140Z,11.45
2018-12-21T17:10:18.776Z,11.45
2018-12-21T17:12:47.885Z,11.44
2018-12-21T17:15:16.848Z,11.43
2018-12-21T17:17:46.284Z,11.44
2018-12-21T17:20:15.999Z,11.45
2018-12-21T17:22:45.027Z,11.43
2018-12-21T17:25:15.039Z,11.43
2018-12-21T17:27:43.890Z,11.42
2018-12-21T17:30:13.473Z,11.42
2018-12-21T17:32:42.275Z,11.40
2018-12-21T17:35:31.969Z,11.40
2018-12-21T17:38:00.947Z,11.40
2018-12-21T17:40:29.548Z,11.41
2018-12-21T17:42:58.440Z,11.41
2018-12-21T17:45:27.400Z,11.41
2018-12-21T17:47:57.060Z,11.42
2018-12-21T17:50:25.897Z,11.42
2018-12-21T17:52:56.736Z,11.44
2018-12-21T17:55:25.582Z,11.45
2018-12-21T17:57:54.252Z,11.45
2018-12-21T18:00:22.855Z,11.44
2018-12-21T18:02:53.767Z,11.43
2018-12-21T18:05:23.286Z,11.44
2018-12-21T18:07:52.307Z,11.43
2018-12-21T18:10:21.012Z,11.43
2018-12-21T18:12:49.723Z,11.42
2018-12-21T18:15:18.424Z,11.43
2018-12-21T18:17:47.236Z,11.43
2018-12-21T18:20:17.321Z,11.45
2018-12-21T18:22:46.182Z,11.47
2018-12-21T18:25:20.555Z,11.48
2018-12-21T18:30:56.443Z,11.48
2018-12-21T18:33:25.779Z,11.52
2018-12-21T18:35:54.607Z,11.54
2018-12-21T18:38:26.048Z,11.55
2018-12-21T18:40:54.736Z,11.57
2018-12-21T18:43:23.392Z,11.57
2018-12-21T18:45:52.103Z,11.55
2018-12-21T18:48:20.932Z,11.55
2018-12-21T18:50:49.717Z,11.56
2018-12-21T18:53:18.386Z,11.56
2018-12-21T18:55:49.198Z,11.57
2018-12-21T18:58:17.836Z,11.56
2018-12-21T19:00:46.494Z,11.60
2018-12-21T19:03:15.180Z,11.60
2018-12-21T19:05:43.824Z,11.61
2018-12-21T19:08:12.588Z,11.61
2018-12-21T19:10:41.284Z,11.60
2018-12-21T19:13:10.025Z,11.58
2018-12-21T19:15:39.015Z,11.55
2018-12-21T19:18:07.924Z,11.51
2018-12-21T19:20:36.579Z,11.47
2018-12-21T19:23:05.281Z,11.48
2018-12-21T19:25:33.891Z,11.45
2018-12-21T19:28:02.523Z,11.45
2018-12-21T19:30:31.138Z,11.43
2018-12-21T19:32:59.739Z,11.41
2018-12-21T19:35:29.979Z,11.40
2018-12-21T19:37:58.855Z,11.36
2018-12-21T19:40:27.474Z,11.35
2018-12-21T19:42:56.119Z,11.30
2018-12-21T19:45:24.764Z,11.31
2018-12-21T19:47:53.421Z,11.31
2018-12-21T19:50:22.080Z,11.31
2018-12-21T19:52:50.771Z,11.32
2018-12-21T19:56:02.005Z,11.32
2018-12-21T19:58:30.627Z,11.29
2018-12-21T20:00:59.236Z,11.29
2018-12-21T20:03:27.811Z,11.29
2018-12-21T20:05:56.388Z,11.31
2018-12-21T20:08:27.169Z,11.33
2018-12-21T20:10:55.659Z,11.35
2018-12-21T20:13:24.306Z,11.35
2018-12-21T20:15:52.871Z,11.37
2018-12-21T20:18:21.629Z,11.40
2018-12-21T20:20:50.438Z,11.43
2018-12-21T20:23:19.873Z,11.46
2018-12-21T20:25:48.796Z,11.46
2018-12-21T20:28:17.633Z,11.50
2018-12-21T20:30:46.357Z,11.53
2018-12-21T20:33:16.067Z,11.55
2018-12-21T20:35:44.767Z,11.56
2018-12-21T20:38:21.188Z,11.57
2018-12-21T20:40:44.671Z,11.58
2018-12-21T20:43:13.478Z,11.57
2018-12-21T20:45:42.288Z,11.59
2018-12-21T20:48:11.181Z,11.62
2018-12-21T20:50:39.855Z,11.63
2018-12-21T20:53:08.460Z,11.63
2018-12-21T20:55:37.105Z,11.63
2018-12-21T20:58:14.592Z,11.64
2018-12-21T21:00:43.267Z,11.65
2018-12-21T21:03:11.883Z,11.65
2018-12-21T21:05:40.575Z,11.66
2018-12-21T21:08:09.259Z,11.66
2018-12-21T21:10:37.912Z,11.68
2018-12-21T21:13:07.155Z,11.69
2018-12-21T21:15:36.240Z,11.69
2018-12-21T21:18:04.891Z,11.70
2018-12-21T21:20:33.673Z,11.70
2018-12-21T21:23:02.336Z,11.72
2018-12-21T21:25:30.971Z,11.70
2018-12-21T21:27:59.587Z,11.72
2018-12-21T21:30:29.592Z,11.73
2018-12-21T21:32:58.258Z,11.74
2018-12-21T21:35:26.895Z,11.74
2018-12-21T21:37:55.477Z,11.73
2018-12-21T21:40:24.073Z,11.72
2018-12-21T21:42:57.552Z,11.73
2018-12-21T21:45:23.421Z,11.73
2018-12-21T21:47:52.059Z,11.73
2018-12-21T21:50:20.655Z,11.73
2018-12-21T21:52:49.309Z,11.70
2018-12-21T21:55:18.065Z,11.72
2018-12-21T21:57:46.655Z,11.74
2018-12-21T22:00:15.501Z,11.74
2018-12-21T22:02:44.313Z,11.72
2018-12-21T22:05:12.943Z,11.70
2018-12-21T22:07:41.716Z,11.70
2018-12-21T22:10:11.599Z,11.69
2018-12-21T22:12:40.276Z,11.69
2018-12-21T22:15:10.108Z,11.67
2018-12-21T22:17:38.759Z,11.66
2018-12-21T22:20:12.462Z,11.65
2018-12-21T22:22:41.063Z,11.63
2018-12-21T22:25:09.654Z,11.59
2018-12-21T22:27:38.264Z,11.61
2018-12-21T22:30:09.325Z,11.59
2018-12-21T22:45:47.743Z,12.01
2018-12-21T22:50:55.539Z,11.82
2018-12-21T22:53:24.379Z,11.78
2018-12-21T22:55:52.971Z,11.74
2018-12-21T22:58:21.737Z,11.71
2018-12-21T23:00:50.377Z,11.70
2018-12-21T23:03:18.953Z,11.67
2018-12-21T23:05:47.533Z,11.65
2018-12-21T23:08:16.159Z,11.64
2018-12-21T23:10:44.791Z,11.64
2018-12-21T23:13:13.411Z,11.63
2018-12-21T23:15:41.997Z,11.61
2018-12-21T23:18:10.672Z,11.58
2018-12-21T23:20:39.312Z,11.58
2018-12-21T23:23:07.954Z,11.56
2018-12-21T23:25:36.618Z,11.56
2018-12-21T23:28:05.469Z,11.56
2018-12-21T23:30:34.149Z,11.53
2018-12-21T23:33:02.923Z,11.51
2018-12-21T23:35:31.676Z,11.49
2018-12-21T23:38:00.254Z,11.46
2018-12-21T23:40:28.820Z,11.46
2018-12-21T23:42:57.376Z,11.44
2018-12-21T23:45:25.976Z,11.41
2018-12-21T23:47:54.560Z,11.41
2018-12-21T23:50:23.175Z,11.41
2018-12-21T23:52:51.960Z,11.41
2018-12-21T23:55:20.663Z,11.40
2018-12-21T23:57:49.288Z,11.38
